To NAV CANADA Home Page Login to a new session Search on AWWS site Feedback and Comments Disclaimer Vers la page française équivalente Tips FAQ What's new on the site To the Forecasts and Observations / NOTAM section To "File a Flight Plan" website Publications and other links Update of the User's profile FIC Telephone Numbers My Weather Data Folder Route Weather Data Regional Weather Data Local Weather Data To the Forecasts and Observations / NOTAM section
Request Generated 06/26/2017 at 22:33:48 UTC . Weather information available at that time is displayed.

METAR/TAF

COMOX/BC    

METAR CYQQ 262200Z 35010KT 20SM FEW050 FEW250 22/10 A2993 RMK CU1CI1 SLP135=
METAR CYQQ 262100Z 34009KT 20SM FEW030 FEW250 20/10 A2993 RMK CU1CI1 SLP135=
METAR CYQQ 262000Z 35011KT 20SM FEW028 FEW250 19/10 A2993 RMK CU1CI1 SLP135=

TAF CYQQ 261739Z 2618/2718 35012G22KT P6SM FEW160 FEW250
RMK NXT FCST BY 270000Z=
Your time UTC time
Weather data provided by Environment Canada and NAV CANADA